Flight Track Log - Related Links

Times and Time Zones

All times are in EDT time to prevent confusion due to time zone crossing. See the EGF3985 flight status page for this flight to view local times or setup timezone preferences in your user account.

Time Position Orientation Groundspeed Altitude Reporting Facility
EDT Latitude Longitude Course Direction KTS MPH feet Rate Location/Type
Wed 04:51:32 PM 40.6000 -73.8000 232° Southwest 185 213 1,900  Level New York TRACON
Wed 04:52:32 PM 40.5500 -73.7833 166° South 235 270 4,400 2,550 Climbing New York TRACON
Wed 04:53:00 PM 40.4674 -74.0485 237° Southwest  Level FlightAware Approximate
Wed 04:53:32 PM 40.4833 -73.7500 159° South 236 272 7,000  Level New York TRACON
Wed 04:54:00 PM 40.4071 -74.1394 229° Southwest  Level FlightAware Approximate
Wed 04:54:32 PM 40.4500 -73.8167 237° Southwest 237 273 9,200  Level New York TRACON
Wed 04:55:00 PM 40.3479 -74.2314 232° Southwest  Level FlightAware Approximate
Wed 04:55:38 PM 40.4167 -73.9167 246° West 273 314 10,600  Level New York TRACON
Wed 04:56:00 PM 40.2911 -74.3261 232° Southwest  Level FlightAware Approximate
Wed 04:57:39 PM 40.3367 -74.1364 245° Southwest 333 383 12,300  Level New York Center
Wed 04:58:40 PM 40.3025 -74.2353 246° West 339 390 13,600 1,438 Climbing New York Center
Wed 04:59:40 PM 40.2614 -74.3558 246° West 339 390 15,200 1,488 Climbing New York Center
Wed 05:00:41 PM 40.2497 -74.4611 262° West 326 375 16,600 1,462 Climbing New York Center
Wed 05:01:39 PM 40.2356 -74.5800 261° West 326 375 18,100 1,613 Climbing New York Center
Wed 05:02:40 PM 40.2228 -74.7153 263° West 342 394 19,800 1,537 Climbing New York Center
Wed 05:03:40 PM 40.2081 -74.8367 261° West 348 400 21,200 1,289 Climbing New York Center
Wed 05:04:41 PM 40.2000 -74.9478 265° West 348 400 22,400 1,091 Climbing New York Center
Wed 05:05:41 PM 40.1892 -75.0775 264° West 353 406 23,400 1,017 Climbing New York Center
Wed 05:06:39 PM 40.1739 -75.2069 261° West 359 413 24,400 1,008 Climbing New York Center
Wed 05:07:40 PM 40.1625 -75.3419 264° West 371 427 25,400 992 Climbing New York Center
Wed 05:08:40 PM 40.1469 -75.4742 261° West 371 427 26,400 1,017 Climbing New York Center
Wed 05:09:38 PM 40.1311 -75.6061 261° West 371 427 27,400 807 Climbing New York Center
Wed 05:10:39 PM 40.1172 -75.7381 262° West 371 427 28,000 295 Climbing New York Center
Wed 05:11:40 PM 40.1031 -75.8756 262° West 371 427 28,000  Level New York Center
Wed 05:12:41 PM 40.0883 -76.0211 263° West 384 442 28,000  Level New York Center
Wed 05:13:41 PM 40.0694 -76.1661 260° West 400 460 28,000  Level New York Center
Wed 05:14:39 PM 40.0500 -76.3111 260° West 411 473 28,000  Level New York Center
Wed 05:15:39 PM 40.0328 -76.4533 261° West 405 466 28,000  Level New York Center
Wed 05:16:40 PM 39.9850 -76.5822 244° Southwest 400 460 28,000  Level New York Center
Wed 05:17:40 PM 39.9286 -76.7075 240° Southwest 400 460 28,000  Level New York Center
Wed 05:18:41 PM 39.8683 -76.8297 237° Southwest 400 460 28,000  Level New York Center
Wed 05:19:07 PM 39.8314 -76.9047 237° Southwest 409 471 28,000  Level Washington Center
Wed 05:20:07 PM 39.7739 -77.0306 239° Southwest 409 471 28,000  Level Washington Center
Wed 05:21:07 PM 39.7139 -77.1586 239° Southwest 409 471 28,000  Level Washington Center
Wed 05:22:07 PM 39.6558 -77.2842 239° Southwest 409 471 28,000  Level Washington Center
Wed 05:23:07 PM 39.5958 -77.4067 238° Southwest 409 471 28,000  Level Washington Center
Wed 05:24:07 PM 39.5378 -77.5264 238° Southwest 404 465 28,000  Level Washington Center
Wed 05:25:07 PM 39.4817 -77.6458 239° Southwest 404 465 28,000  Level Washington Center
Wed 05:26:07 PM 39.4211 -77.7703 238° Southwest 404 465 28,000  Level Washington Center
Wed 05:27:07 PM 39.3667 -77.8922 240° Southwest 404 465 28,000  Level Washington Center
Wed 05:28:07 PM 39.3161 -78.0219 243° Southwest 399 459 28,000  Level Washington Center
Wed 05:29:07 PM 39.2656 -78.1492 243° Southwest 399 459 28,000  Level Washington Center
Wed 05:30:07 PM 39.2150 -78.2733 242° Southwest 399 459 28,000  Level Washington Center
Wed 05:31:07 PM 39.1708 -78.3867 243° Southwest 405 466 28,000  Level Washington Center
Wed 05:32:07 PM 39.1219 -78.5106 243° Southwest 400 460 28,000  Level Washington Center
Wed 05:33:07 PM 39.0894 -78.6403 252° West 395 455 28,000  Level Washington Center
Wed 05:34:07 PM 39.0672 -78.7758 258° West 390 449 28,000  Level Washington Center
Wed 05:35:07 PM 39.0428 -78.9111 257° West 390 449 28,000  Level Washington Center
Wed 05:36:07 PM 39.0181 -79.0436 257° West 390 449 28,000  Level Washington Center
Wed 05:37:07 PM 38.9956 -79.1761 258° West 390 449 28,000  Level Washington Center
Wed 05:38:07 PM 38.9728 -79.3111 258° West 390 449 28,000  Level Washington Center
Wed 05:39:07 PM 38.9497 -79.4406 257° West 390 449 28,000  Level Washington Center
Wed 05:40:07 PM 38.9247 -79.5700 256° West 390 449 28,000  Level Washington Center
Wed 05:41:07 PM 38.8992 -79.7075 257° West 395 455 28,000  Level Washington Center
Wed 05:42:07 PM 38.8756 -79.8475 258° West 390 449 28,000  Level Washington Center
Wed 05:43:07 PM 38.8481 -79.9764 255° West 378 435 28,000  Level Washington Center
Wed 05:45:01 PM 38.8158 -80.2061 260° West 367 422 28,000  Level Indianapolis Center
Wed 05:46:03 PM 38.8139 -80.3403 269° West 376 433 28,000  Level Indianapolis Center
Wed 05:47:05 PM 38.8106 -80.4747 268° West 377 434 28,000  Level Indianapolis Center
Wed 05:48:07 PM 38.8058 -80.6086 267° West 377 434 28,000  Level Indianapolis Center
Wed 05:49:09 PM 38.8025 -80.7431 268° West 379 436 28,000  Level Indianapolis Center
Wed 05:50:10 PM 38.7986 -80.8778 268° West 379 436 28,000  Level Indianapolis Center
Wed 05:51:12 PM 38.7928 -81.0381 267° West 379 436 28,000  Level Indianapolis Center
Wed 05:52:14 PM 38.7878 -81.1703 267° West 373 429 28,000  Level Indianapolis Center
Wed 05:53:16 PM 38.7831 -81.3014 267° West 371 427 28,000 -435 Level Indianapolis Center
Wed 05:54:18 PM 38.7792 -81.4289 268° West 365 420 27,100 -919 Descending Indianapolis Center
Wed 05:55:20 PM 38.7739 -81.5653 267° West 362 417 26,100 -1,016 Descending Indianapolis Center
Wed 05:56:22 PM 38.7686 -81.7056 267° West 364 419 25,000 -968 Descending Indianapolis Center
Wed 05:57:24 PM 38.7631 -81.8297 267° West 356 410 24,100 -488 Descending Indianapolis Center
Wed 05:58:25 PM 38.7581 -81.9533 267° West 349 402 24,000 -49 Descending Indianapolis Center
Wed 05:59:27 PM 38.7433 -82.0750 261° West 345 397 24,000  Level Indianapolis Center
Wed 06:00:29 PM 38.7111 -82.1906 250° West 346 398 24,000  Level Indianapolis Center
Wed 06:01:31 PM 38.6731 -82.3314 251° West 350 403 24,000  Level Indianapolis Center
Wed 06:02:33 PM 38.6417 -82.4472 251° West 347 399 24,000  Level Indianapolis Center
Wed 06:03:35 PM 38.6094 -82.5706 252° West 347 399 24,000 -97 Level Indianapolis Center
Wed 06:04:37 PM 38.5783 -82.6864 251° West 346 398 23,800 -532 Descending Indianapolis Center
Wed 06:05:39 PM 38.5478 -82.7986 251° West 338 389 22,900 -919 Descending Indianapolis Center
Wed 06:06:41 PM 38.5367 -82.9175 263° West 344 396 21,900 -968 Descending Indianapolis Center
Wed 06:07:43 PM 38.5472 -83.0378 276° West 341 392 20,900 -1,016 Descending Indianapolis Center
Wed 06:08:45 PM 38.5592 -83.1756 276° West 336 387 19,800 -1,016 Descending Indianapolis Center
Wed 06:09:47 PM 38.5675 -83.2906 275° West 328 377 18,800 -1,016 Descending Indianapolis Center
Wed 06:10:49 PM 38.5756 -83.4008 275° West 317 365 17,700 -1,452 Descending Indianapolis Center
Wed 06:11:51 PM 38.5819 -83.4883 275° West 257 296 15,800 -1,645 Descending Indianapolis Center
Wed 06:12:53 PM 38.5889 -83.5681 276° West 233 268 14,300 -1,548 Descending Indianapolis Center
Wed 06:13:55 PM 38.5956 -83.6631 275° West 231 266 12,600 -1,561 Descending Indianapolis Center
Wed 06:14:56 PM 38.6019 -83.7450 276° West 233 268 11,100 -1,268 Descending Indianapolis Center
Wed 06:15:58 PM 38.6083 -83.8358 275° West 251 289 10,000 -532 Descending Indianapolis Center
Wed 06:17:00 PM 38.6139 -83.9217 275° West 246 283 10,000  Level Indianapolis Center
Wed 06:18:02 PM 38.6578 -84.0089 303° West 272 313 10,000 -435 Level Indianapolis Center
Wed 06:19:04 PM 38.6761 -84.0950 285° West 249 287 9,100 -919 Descending Indianapolis Center
Wed 06:20:06 PM 38.6897 -84.1758 282° West 235 270 8,100 -532 Descending Indianapolis Center
Wed 06:21:08 PM 38.6992 -84.2561 279° West 228 262 8,000 -48 Descending Indianapolis Center
Wed 06:22:10 PM 38.7089 -84.3369 279° West 228 262 8,000  Level Indianapolis Center
Wed 06:23:12 PM 38.7186 -84.4197 279° West 232 267 8,000  Level Indianapolis Center
Wed 06:24:14 PM 38.7314 -84.5153 280° West 232 267 8,000 -242 Level Indianapolis Center
Wed 06:25:16 PM 38.7372 -84.5878 276° West 212 244 7,500 -726 Descending Indianapolis Center
Wed 06:26:18 PM 38.7628 -84.6328 306° West 187 215 6,500 -919 Descending Indianapolis Center
Wed 06:27:20 PM 38.8058 -84.6711 325° Northwest 189 217 5,600 -896 Descending Indianapolis Center
Wed 06:28:32 PM 38.8833 -84.6667 North 204 235 4,500 -1,095 Descending Cincinnati TRACON
Wed 06:29:26 PM 38.9167 -84.6667 360° North 176 203 3,300 -1,333 Descending Cincinnati TRACON

Login

Don't have an account? Register now (free) for customized features, flight alerts, and more!